sensor_id;sensor_type;location;lat;lon;timestamp;P1;durP1;ratioP1;P2;durP2;ratioP2
82012;SDS011;71535;53.354;15.030;2023-07-20T00:02:12;7.40;;;2.03;;
82012;SDS011;71535;53.354;15.030;2023-07-20T00:04:39;4.90;;;2.17;;
82012;SDS011;71535;53.354;15.030;2023-07-20T00:07:04;6.70;;;2.78;;
82012;SDS011;71535;53.354;15.030;2023-07-20T00:09:30;10.48;;;2.55;;
82012;SDS011;71535;53.354;15.030;2023-07-20T00:11:55;10.45;;;4.18;;
82012;SDS011;71535;53.354;15.030;2023-07-20T00:14:21;16.55;;;6.32;;
82012;SDS011;71535;53.354;15.030;2023-07-20T00:16:47;8.73;;;4.13;;
82012;SDS011;71535;53.354;15.030;2023-07-20T00:19:17;5.95;;;2.70;;
82012;SDS011;71535;53.354;15.030;2023-07-20T00:21:42;8.70;;;3.72;;
82012;SDS011;71535;53.354;15.030;2023-07-20T00:24:07;8.65;;;3.58;;
82012;SDS011;71535;53.354;15.030;2023-07-20T00:26:33;6.60;;;3.08;;
82012;SDS011;71535;53.354;15.030;2023-07-20T00:28:58;7.00;;;2.65;;
82012;SDS011;71535;53.354;15.030;2023-07-20T00:31:24;4.13;;;2.00;;
82012;SDS011;71535;53.354;15.030;2023-07-20T00:33:49;4.40;;;2.07;;
82012;SDS011;71535;53.354;15.030;2023-07-20T00:36:14;4.22;;;2.03;;
82012;SDS011;71535;53.354;15.030;2023-07-20T00:38:40;4.40;;;1.80;;
82012;SDS011;71535;53.354;15.030;2023-07-20T00:41:07;5.20;;;2.10;;
82012;SDS011;71535;53.354;15.030;2023-07-20T00:43:32;5.40;;;1.70;;
82012;SDS011;71535;53.354;15.030;2023-07-20T00:45:57;6.07;;;1.80;;
82012;SDS011;71535;53.354;15.030;2023-07-20T00:48:23;5.50;;;1.80;;
82012;SDS011;71535;53.354;15.030;2023-07-20T00:50:48;5.97;;;2.10;;
82012;SDS011;71535;53.354;15.030;2023-07-20T00:53:15;4.82;;;1.83;;
82012;SDS011;71535;53.354;15.030;2023-07-20T00:55:41;5.20;;;1.70;;
82012;SDS011;71535;53.354;15.030;2023-07-20T00:58:06;4.72;;;2.03;;
82012;SDS011;71535;53.354;15.030;2023-07-20T01:00:33;4.78;;;2.20;;
82012;SDS011;71535;53.354;15.030;2023-07-20T01:02:58;5.50;;;2.03;;
82012;SDS011;71535;53.354;15.030;2023-07-20T01:05:25;4.78;;;1.80;;
82012;SDS011;71535;53.354;15.030;2023-07-20T01:08:11;4.50;;;1.90;;
82012;SDS011;71535;53.354;15.030;2023-07-20T01:10:59;4.60;;;1.90;;
82012;SDS011;71535;53.354;15.030;2023-07-20T01:13:34;5.25;;;2.22;;
82012;SDS011;71535;53.354;15.030;2023-07-20T01:16:02;5.30;;;1.92;;
82012;SDS011;71535;53.354;15.030;2023-07-20T01:18:28;5.13;;;2.15;;
82012;SDS011;71535;53.354;15.030;2023-07-20T01:21:00;5.28;;;1.60;;
82012;SDS011;71535;53.354;15.030;2023-07-20T01:33:57;6.40;;;1.88;;
82012;SDS011;71535;53.354;15.030;2023-07-20T01:36:24;5.47;;;1.90;;
82012;SDS011;71535;53.354;15.030;2023-07-20T01:38:53;4.40;;;1.50;;
82012;SDS011;71535;53.354;15.030;2023-07-20T01:41:19;3.92;;;1.50;;
82012;SDS011;71535;53.354;15.030;2023-07-20T01:43:45;4.70;;;1.70;;
82012;SDS011;71535;53.354;15.030;2023-07-20T01:46:11;3.67;;;1.70;;
82012;SDS011;71535;53.354;15.030;2023-07-20T01:48:36;4.13;;;1.67;;
82012;SDS011;71535;53.354;15.030;2023-07-20T01:51:01;3.83;;;1.58;;
82012;SDS011;71535;53.354;15.030;2023-07-20T01:53:27;4.68;;;1.70;;
82012;SDS011;71535;53.354;15.030;2023-07-20T01:55:53;6.00;;;1.57;;
82012;SDS011;71535;53.354;15.030;2023-07-20T01:58:19;3.85;;;1.60;;
82012;SDS011;71535;53.354;15.030;2023-07-20T02:00:44;6.97;;;2.20;;
82012;SDS011;71535;53.354;15.030;2023-07-20T02:03:10;4.53;;;1.80;;
82012;SDS011;71535;53.354;15.030;2023-07-20T02:05:37;5.25;;;1.85;;
82012;SDS011;71535;53.354;15.030;2023-07-20T02:08:02;3.83;;;1.38;;
82012;SDS011;71535;53.354;15.030;2023-07-20T02:10:28;5.35;;;1.80;;
82012;SDS011;71535;53.354;15.030;2023-07-20T02:12:53;4.53;;;1.98;;
82012;SDS011;71535;53.354;15.030;2023-07-20T02:15:18;5.63;;;1.83;;
82012;SDS011;71535;53.354;15.030;2023-07-20T02:17:44;5.63;;;1.90;;
82012;SDS011;71535;53.354;15.030;2023-07-20T02:20:09;5.32;;;2.00;;
82012;SDS011;71535;53.354;15.030;2023-07-20T02:22:39;5.20;;;1.80;;
82012;SDS011;71535;53.354;15.030;2023-07-20T02:25:05;4.70;;;1.80;;
82012;SDS011;71535;53.354;15.030;2023-07-20T02:27:32;5.65;;;1.80;;
82012;SDS011;71535;53.354;15.030;2023-07-20T02:30:02;6.40;;;2.38;;
82012;SDS011;71535;53.354;15.030;2023-07-20T02:32:28;4.57;;;1.90;;
82012;SDS011;71535;53.354;15.030;2023-07-20T02:34:53;5.90;;;2.03;;
82012;SDS011;71535;53.354;15.030;2023-07-20T02:37:19;7.93;;;2.42;;
82012;SDS011;71535;53.354;15.030;2023-07-20T02:39:44;4.25;;;1.90;;
82012;SDS011;71535;53.354;15.030;2023-07-20T02:42:10;5.78;;;1.67;;
82012;SDS011;71535;53.354;15.030;2023-07-20T02:44:35;4.53;;;1.90;;
82012;SDS011;71535;53.354;15.030;2023-07-20T02:47:00;4.35;;;1.90;;
82012;SDS011;71535;53.354;15.030;2023-07-20T02:49:26;7.33;;;2.20;;
82012;SDS011;71535;53.354;15.030;2023-07-20T02:51:52;5.05;;;2.35;;
82012;SDS011;71535;53.354;15.030;2023-07-20T02:54:17;5.15;;;1.90;;
82012;SDS011;71535;53.354;15.030;2023-07-20T02:56:42;7.30;;;2.20;;
82012;SDS011;71535;53.354;15.030;2023-07-20T02:59:08;5.97;;;2.03;;
82012;SDS011;71535;53.354;15.030;2023-07-20T03:01:33;6.18;;;2.05;;
82012;SDS011;71535;53.354;15.030;2023-07-20T03:03:58;5.10;;;1.83;;
82012;SDS011;71535;53.354;15.030;2023-07-20T03:06:24;6.78;;;2.33;;
82012;SDS011;71535;53.354;15.030;2023-07-20T03:08:49;5.20;;;2.13;;
82012;SDS011;71535;53.354;15.030;2023-07-20T03:11:17;5.43;;;2.08;;
82012;SDS011;71535;53.354;15.030;2023-07-20T03:13:44;6.25;;;2.35;;
82012;SDS011;71535;53.354;15.030;2023-07-20T03:16:10;6.43;;;2.00;;
82012;SDS011;71535;53.354;15.030;2023-07-20T03:18:40;5.25;;;2.45;;
82012;SDS011;71535;53.354;15.030;2023-07-20T03:21:06;5.47;;;2.10;;
82012;SDS011;71535;53.354;15.030;2023-07-20T03:23:33;8.80;;;2.28;;
82012;SDS011;71535;53.354;15.030;2023-07-20T03:25:58;5.30;;;1.90;;
82012;SDS011;71535;53.354;15.030;2023-07-20T03:28:23;4.63;;;1.92;;
82012;SDS011;71535;53.354;15.030;2023-07-20T03:30:53;4.72;;;1.77;;
82012;SDS011;71535;53.354;15.030;2023-07-20T03:33:25;6.10;;;2.22;;
82012;SDS011;71535;53.354;15.030;2023-07-20T03:35:51;5.28;;;2.00;;
82012;SDS011;71535;53.354;15.030;2023-07-20T03:38:17;4.25;;;1.80;;
82012;SDS011;71535;53.354;15.030;2023-07-20T03:40:49;4.35;;;1.65;;
82012;SDS011;71535;53.354;15.030;2023-07-20T03:43:19;6.50;;;2.03;;
82012;SDS011;71535;53.354;15.030;2023-07-20T03:45:46;5.55;;;2.00;;
82012;SDS011;71535;53.354;15.030;2023-07-20T03:48:13;6.05;;;2.47;;
82012;SDS011;71535;53.354;15.030;2023-07-20T03:50:40;6.05;;;2.17;;
82012;SDS011;71535;53.354;15.030;2023-07-20T03:53:06;6.22;;;2.35;;
82012;SDS011;71535;53.354;15.030;2023-07-20T03:55:31;6.25;;;1.85;;
82012;SDS011;71535;53.354;15.030;2023-07-20T03:57:57;4.65;;;1.85;;
82012;SDS011;71535;53.354;15.030;2023-07-20T04:00:22;5.65;;;2.13;;
82012;SDS011;71535;53.354;15.030;2023-07-20T04:02:48;4.55;;;1.73;;
82012;SDS011;71535;53.354;15.030;2023-07-20T04:05:13;5.15;;;1.90;;
82012;SDS011;71535;53.354;15.030;2023-07-20T04:07:39;6.45;;;1.63;;
82012;SDS011;71535;53.354;15.030;2023-07-20T04:10:04;5.05;;;2.00;;
82012;SDS011;71535;53.354;15.030;2023-07-20T04:12:30;5.15;;;2.08;;
82012;SDS011;71535;53.354;15.030;2023-07-20T04:14:55;4.97;;;1.77;;
82012;SDS011;71535;53.354;15.030;2023-07-20T04:17:21;4.85;;;1.55;;
82012;SDS011;71535;53.354;15.030;2023-07-20T04:19:46;7.65;;;1.98;;
82012;SDS011;71535;53.354;15.030;2023-07-20T04:22:11;4.40;;;2.00;;
82012;SDS011;71535;53.354;15.030;2023-07-20T04:24:37;5.07;;;2.30;;
82012;SDS011;71535;53.354;15.030;2023-07-20T04:27:02;3.97;;;1.70;;
82012;SDS011;71535;53.354;15.030;2023-07-20T04:29:28;4.90;;;1.55;;
82012;SDS011;71535;53.354;15.030;2023-07-20T04:31:53;5.20;;;1.92;;
82012;SDS011;71535;53.354;15.030;2023-07-20T04:34:18;4.15;;;1.38;;
82012;SDS011;71535;53.354;15.030;2023-07-20T04:36:44;3.93;;;1.50;;
82012;SDS011;71535;53.354;15.030;2023-07-20T04:39:09;4.32;;;1.67;;
82012;SDS011;71535;53.354;15.030;2023-07-20T04:41:35;4.88;;;1.50;;
82012;SDS011;71535;53.354;15.030;2023-07-20T04:44:01;5.57;;;1.73;;
82012;SDS011;71535;53.354;15.030;2023-07-20T04:46:26;4.38;;;1.77;;
82012;SDS011;71535;53.354;15.030;2023-07-20T04:48:51;5.88;;;2.03;;
82012;SDS011;71535;53.354;15.030;2023-07-20T04:51:17;4.25;;;1.67;;
82012;SDS011;71535;53.354;15.030;2023-07-20T04:53:46;4.55;;;1.60;;
82012;SDS011;71535;53.354;15.030;2023-07-20T04:56:11;4.00;;;1.70;;
82012;SDS011;71535;53.354;15.030;2023-07-20T04:58:37;7.78;;;1.83;;
82012;SDS011;71535;53.354;15.030;2023-07-20T05:01:02;4.50;;;1.80;;
82012;SDS011;71535;53.354;15.030;2023-07-20T05:03:27;3.88;;;1.50;;
82012;SDS011;71535;53.354;15.030;2023-07-20T05:05:53;3.55;;;1.10;;
82012;SDS011;71535;53.354;15.030;2023-07-20T05:08:19;4.25;;;1.42;;
82012;SDS011;71535;53.354;15.030;2023-07-20T05:10:44;4.15;;;1.38;;
82012;SDS011;71535;53.354;15.030;2023-07-20T05:13:09;4.35;;;1.42;;
82012;SDS011;71535;53.354;15.030;2023-07-20T05:15:35;5.97;;;2.83;;
82012;SDS011;71535;53.354;15.030;2023-07-20T05:18:00;3.85;;;1.35;;
82012;SDS011;71535;53.354;15.030;2023-07-20T05:20:26;6.30;;;1.80;;
82012;SDS011;71535;53.354;15.030;2023-07-20T05:22:52;6.07;;;1.65;;
82012;SDS011;71535;53.354;15.030;2023-07-20T05:25:17;3.75;;;1.55;;
82012;SDS011;71535;53.354;15.030;2023-07-20T05:27:43;5.22;;;1.10;;
82012;SDS011;71535;53.354;15.030;2023-07-20T05:30:11;4.72;;;1.33;;
82012;SDS011;71535;53.354;15.030;2023-07-20T05:32:36;3.22;;;1.23;;
82012;SDS011;71535;53.354;15.030;2023-07-20T05:35:02;6.20;;;1.38;;
82012;SDS011;71535;53.354;15.030;2023-07-20T05:37:28;3.83;;;1.27;;
82012;SDS011;71535;53.354;15.030;2023-07-20T05:39:53;4.00;;;1.10;;
82012;SDS011;71535;53.354;15.030;2023-07-20T05:42:18;7.53;;;1.40;;
82012;SDS011;71535;53.354;15.030;2023-07-20T05:44:44;3.08;;;0.90;;
82012;SDS011;71535;53.354;15.030;2023-07-20T05:47:09;2.92;;;0.88;;
82012;SDS011;71535;53.354;15.030;2023-07-20T05:49:35;3.38;;;1.50;;
82012;SDS011;71535;53.354;15.030;2023-07-20T05:52:01;2.55;;;0.77;;
82012;SDS011;71535;53.354;15.030;2023-07-20T05:54:26;2.95;;;0.90;;
82012;SDS011;71535;53.354;15.030;2023-07-20T05:56:52;3.70;;;0.70;;
82012;SDS011;71535;53.354;15.030;2023-07-20T05:59:18;2.70;;;0.80;;
82012;SDS011;71535;53.354;15.030;2023-07-20T06:01:44;3.22;;;0.90;;
82012;SDS011;71535;53.354;15.030;2023-07-20T06:04:10;3.33;;;0.77;;
82012;SDS011;71535;53.354;15.030;2023-07-20T06:06:36;2.42;;;0.70;;
82012;SDS011;71535;53.354;15.030;2023-07-20T06:09:01;2.65;;;0.63;;
82012;SDS011;71535;53.354;15.030;2023-07-20T06:11:29;3.75;;;0.73;;
82012;SDS011;71535;53.354;15.030;2023-07-20T06:13:55;5.82;;;1.10;;
82012;SDS011;71535;53.354;15.030;2023-07-20T06:16:21;5.80;;;0.77;;
82012;SDS011;71535;53.354;15.030;2023-07-20T06:18:47;4.47;;;1.02;;
82012;SDS011;71535;53.354;15.030;2023-07-20T06:21:12;4.15;;;0.90;;
82012;SDS011;71535;53.354;15.030;2023-07-20T06:23:38;3.63;;;0.90;;
82012;SDS011;71535;53.354;15.030;2023-07-20T06:26:03;3.83;;;1.20;;
82012;SDS011;71535;53.354;15.030;2023-07-20T06:28:28;3.27;;;0.80;;
82012;SDS011;71535;53.354;15.030;2023-07-20T06:30:59;2.60;;;0.63;;
82012;SDS011;71535;53.354;15.030;2023-07-20T06:33:27;6.35;;;0.85;;
82012;SDS011;71535;53.354;15.030;2023-07-20T06:35:53;4.53;;;0.80;;
82012;SDS011;71535;53.354;15.030;2023-07-20T06:38:19;2.95;;;0.73;;
82012;SDS011;71535;53.354;15.030;2023-07-20T06:40:47;3.00;;;0.75;;
82012;SDS011;71535;53.354;15.030;2023-07-20T06:43:13;3.00;;;0.90;;
82012;SDS011;71535;53.354;15.030;2023-07-20T06:45:38;4.25;;;0.65;;
82012;SDS011;71535;53.354;15.030;2023-07-20T06:48:04;1.90;;;0.50;;
82012;SDS011;71535;53.354;15.030;2023-07-20T06:50:29;2.40;;;0.50;;
82012;SDS011;71535;53.354;15.030;2023-07-20T06:52:55;1.90;;;0.38;;
82012;SDS011;71535;53.354;15.030;2023-07-20T06:55:20;2.10;;;0.50;;
82012;SDS011;71535;53.354;15.030;2023-07-20T06:57:46;2.95;;;0.50;;
82012;SDS011;71535;53.354;15.030;2023-07-20T07:00:11;3.25;;;0.60;;
82012;SDS011;71535;53.354;15.030;2023-07-20T07:02:37;4.55;;;0.57;;
82012;SDS011;71535;53.354;15.030;2023-07-20T07:05:03;2.67;;;0.40;;
82012;SDS011;71535;53.354;15.030;2023-07-20T07:07:28;1.73;;;0.40;;
82012;SDS011;71535;53.354;15.030;2023-07-20T07:09:54;2.20;;;0.40;;
82012;SDS011;71535;53.354;15.030;2023-07-20T07:12:19;2.15;;;0.50;;
82012;SDS011;71535;53.354;15.030;2023-07-20T07:14:44;3.17;;;0.70;;
82012;SDS011;71535;53.354;15.030;2023-07-20T07:17:10;4.30;;;0.53;;
82012;SDS011;71535;53.354;15.030;2023-07-20T07:19:35;3.05;;;0.80;;
82012;SDS011;71535;53.354;15.030;2023-07-20T07:22:01;2.10;;;0.50;;
82012;SDS011;71535;53.354;15.030;2023-07-20T07:24:26;2.30;;;0.57;;
82012;SDS011;71535;53.354;15.030;2023-07-20T07:26:58;2.65;;;0.50;;
82012;SDS011;71535;53.354;15.030;2023-07-20T07:29:23;2.63;;;0.60;;
82012;SDS011;71535;53.354;15.030;2023-07-20T07:31:49;2.67;;;0.45;;
82012;SDS011;71535;53.354;15.030;2023-07-20T07:34:14;2.40;;;0.57;;
82012;SDS011;71535;53.354;15.030;2023-07-20T07:36:39;1.93;;;0.30;;
82012;SDS011;71535;53.354;15.030;2023-07-20T07:39:05;2.63;;;0.45;;
82012;SDS011;71535;53.354;15.030;2023-07-20T07:41:30;2.50;;;0.57;;
82012;SDS011;71535;53.354;15.030;2023-07-20T07:43:55;1.85;;;0.45;;
82012;SDS011;71535;53.354;15.030;2023-07-20T07:46:21;4.30;;;0.50;;
82012;SDS011;71535;53.354;15.030;2023-07-20T07:48:46;5.10;;;0.80;;
82012;SDS011;71535;53.354;15.030;2023-07-20T07:51:12;3.20;;;1.00;;
82012;SDS011;71535;53.354;15.030;2023-07-20T07:53:38;2.92;;;1.00;;
82012;SDS011;71535;53.354;15.030;2023-07-20T07:56:06;3.88;;;0.43;;
82012;SDS011;71535;53.354;15.030;2023-07-20T07:58:32;2.78;;;0.40;;
82012;SDS011;71535;53.354;15.030;2023-07-20T08:00:58;2.38;;;0.60;;
82012;SDS011;71535;53.354;15.030;2023-07-20T08:03:23;2.33;;;0.50;;
82012;SDS011;71535;53.354;15.030;2023-07-20T08:05:49;4.38;;;0.77;;
82012;SDS011;71535;53.354;15.030;2023-07-20T08:08:15;2.30;;;0.30;;
82012;SDS011;71535;53.354;15.030;2023-07-20T08:10:40;3.10;;;0.40;;
82012;SDS011;71535;53.354;15.030;2023-07-20T08:13:05;2.53;;;0.47;;
82012;SDS011;71535;53.354;15.030;2023-07-20T08:15:31;2.13;;;0.32;;
82012;SDS011;71535;53.354;15.030;2023-07-20T08:17:56;3.42;;;0.60;;
82012;SDS011;71535;53.354;15.030;2023-07-20T08:20:23;2.88;;;0.40;;
82012;SDS011;71535;53.354;15.030;2023-07-20T08:22:51;1.73;;;0.30;;
82012;SDS011;71535;53.354;15.030;2023-07-20T08:25:18;2.05;;;0.40;;
82012;SDS011;71535;53.354;15.030;2023-07-20T08:27:43;1.70;;;0.35;;
82012;SDS011;71535;53.354;15.030;2023-07-20T08:30:11;2.53;;;0.40;;
82012;SDS011;71535;53.354;15.030;2023-07-20T08:32:36;2.72;;;0.40;;
82012;SDS011;71535;53.354;15.030;2023-07-20T08:35:01;2.17;;;0.40;;
82012;SDS011;71535;53.354;15.030;2023-07-20T08:37:27;2.70;;;0.40;;
82012;SDS011;71535;53.354;15.030;2023-07-20T08:39:53;2.22;;;0.38;;
82012;SDS011;71535;53.354;15.030;2023-07-20T08:42:18;1.80;;;0.40;;
82012;SDS011;71535;53.354;15.030;2023-07-20T08:44:43;1.38;;;0.22;;
82012;SDS011;71535;53.354;15.030;2023-07-20T08:47:13;1.65;;;0.10;;
82012;SDS011;71535;53.354;15.030;2023-07-20T08:49:40;1.58;;;0.30;;
82012;SDS011;71535;53.354;15.030;2023-07-20T08:52:06;1.92;;;0.30;;
82012;SDS011;71535;53.354;15.030;2023-07-20T08:54:32;2.72;;;0.40;;
82012;SDS011;71535;53.354;15.030;2023-07-20T08:57:03;1.83;;;0.45;;
82012;SDS011;71535;53.354;15.030;2023-07-20T08:59:29;2.20;;;0.35;;
82012;SDS011;71535;53.354;15.030;2023-07-20T09:01:58;2.50;;;0.57;;
82012;SDS011;71535;53.354;15.030;2023-07-20T09:04:25;3.83;;;0.63;;
82012;SDS011;71535;53.354;15.030;2023-07-20T09:06:50;2.35;;;0.57;;
82012;SDS011;71535;53.354;15.030;2023-07-20T09:09:16;4.50;;;0.70;;
82012;SDS011;71535;53.354;15.030;2023-07-20T09:11:41;3.25;;;0.50;;
82012;SDS011;71535;53.354;15.030;2023-07-20T09:14:08;3.35;;;0.60;;
82012;SDS011;71535;53.354;15.030;2023-07-20T09:16:51;1.83;;;0.30;;
82012;SDS011;71535;53.354;15.030;2023-07-20T09:19:18;3.17;;;0.50;;
82012;SDS011;71535;53.354;15.030;2023-07-20T09:21:44;4.15;;;0.73;;
82012;SDS011;71535;53.354;15.030;2023-07-20T09:24:12;4.15;;;0.70;;
82012;SDS011;71535;53.354;15.030;2023-07-20T09:26:41;4.43;;;0.47;;
82012;SDS011;71535;53.354;15.030;2023-07-20T09:29:08;3.30;;;0.57;;
82012;SDS011;71535;53.354;15.030;2023-07-20T09:31:35;2.30;;;0.55;;
82012;SDS011;71535;53.354;15.030;2023-07-20T09:34:00;3.28;;;0.50;;
82012;SDS011;71535;53.354;15.030;2023-07-20T09:36:28;3.17;;;0.77;;
82012;SDS011;71535;53.354;15.030;2023-07-20T09:38:54;4.70;;;1.00;;
82012;SDS011;71535;53.354;15.030;2023-07-20T09:41:21;4.90;;;0.70;;
82012;SDS011;71535;53.354;15.030;2023-07-20T09:43:46;6.70;;;1.17;;
82012;SDS011;71535;53.354;15.030;2023-07-20T09:46:12;2.35;;;0.52;;
82012;SDS011;71535;53.354;15.030;2023-07-20T09:48:38;3.40;;;1.00;;
82012;SDS011;71535;53.354;15.030;2023-07-20T09:51:04;3.13;;;0.80;;
82012;SDS011;71535;53.354;15.030;2023-07-20T09:53:32;4.30;;;0.65;;
82012;SDS011;71535;53.354;15.030;2023-07-20T09:55:58;2.92;;;0.70;;
82012;SDS011;71535;53.354;15.030;2023-07-20T09:58:24;4.88;;;0.70;;
82012;SDS011;71535;53.354;15.030;2023-07-20T10:00:51;2.80;;;0.50;;
82012;SDS011;71535;53.354;15.030;2023-07-20T10:03:20;2.60;;;0.45;;
82012;SDS011;71535;53.354;15.030;2023-07-20T10:05:47;2.50;;;0.55;;
82012;SDS011;71535;53.354;15.030;2023-07-20T10:10:44;1.55;;;0.32;;
82012;SDS011;71535;53.354;15.030;2023-07-20T10:13:13;3.75;;;0.43;;
82012;SDS011;71535;53.354;15.030;2023-07-20T10:15:48;4.25;;;0.70;;
82012;SDS011;71535;53.354;15.030;2023-07-20T10:18:23;2.00;;;0.50;;
82012;SDS011;71535;53.354;15.030;2023-07-20T10:20:54;2.15;;;0.40;;
82012;SDS011;71535;53.354;15.030;2023-07-20T10:23:20;4.10;;;0.70;;
82012;SDS011;71535;53.354;15.030;2023-07-20T10:25:47;2.33;;;0.50;;
82012;SDS011;71535;53.354;15.030;2023-07-20T10:28:13;4.00;;;0.77;;
82012;SDS011;71535;53.354;15.030;2023-07-20T10:30:39;1.42;;;0.28;;
82012;SDS011;71535;53.354;15.030;2023-07-20T10:33:05;3.55;;;0.60;;
82012;SDS011;71535;53.354;15.030;2023-07-20T10:35:31;2.08;;;0.45;;
82012;SDS011;71535;53.354;15.030;2023-07-20T10:38:16;3.05;;;0.40;;
82012;SDS011;71535;53.354;15.030;2023-07-20T10:40:41;5.68;;;0.68;;
82012;SDS011;71535;53.354;15.030;2023-07-20T10:43:07;2.60;;;0.70;;
82012;SDS011;71535;53.354;15.030;2023-07-20T10:48:07;5.43;;;0.70;;
82012;SDS011;71535;53.354;15.030;2023-07-20T10:50:39;2.38;;;0.32;;
82012;SDS011;71535;53.354;15.030;2023-07-20T10:53:15;1.27;;;0.20;;
82012;SDS011;71535;53.354;15.030;2023-07-20T10:55:41;0.55;;;0.10;;
82012;SDS011;71535;53.354;15.030;2023-07-20T11:01:01;1.55;;;0.20;;
82012;SDS011;71535;53.354;15.030;2023-07-20T11:03:27;0.47;;;0.10;;
82012;SDS011;71535;53.354;15.030;2023-07-20T11:05:53;1.33;;;0.20;;
82012;SDS011;71535;53.354;15.030;2023-07-20T11:08:38;3.00;;;0.20;;
82012;SDS011;71535;53.354;15.030;2023-07-20T11:13:55;0.82;;;0.13;;
82012;SDS011;71535;53.354;15.030;2023-07-20T11:16:32;1.67;;;0.10;;
82012;SDS011;71535;53.354;15.030;2023-07-20T11:18:58;0.80;;;0.10;;
82012;SDS011;71535;53.354;15.030;2023-07-20T11:21:24;0.57;;;0.10;;
82012;SDS011;71535;53.354;15.030;2023-07-20T11:23:50;1.55;;;0.20;;
82012;SDS011;71535;53.354;15.030;2023-07-20T11:26:17;1.10;;;0.15;;
82012;SDS011;71535;53.354;15.030;2023-07-20T11:28:43;1.73;;;0.30;;
82012;SDS011;71535;53.354;15.030;2023-07-20T11:31:08;3.28;;;0.50;;
82012;SDS011;71535;53.354;15.030;2023-07-20T11:33:34;1.80;;;0.30;;
82012;SDS011;71535;53.354;15.030;2023-07-20T11:35:59;2.93;;;0.37;;
82012;SDS011;71535;53.354;15.030;2023-07-20T11:38:24;4.50;;;0.98;;
82012;SDS011;71535;53.354;15.030;2023-07-20T11:40:50;4.10;;;0.80;;
82012;SDS011;71535;53.354;15.030;2023-07-20T11:43:16;4.30;;;0.90;;
82012;SDS011;71535;53.354;15.030;2023-07-20T11:45:41;3.38;;;0.60;;
82012;SDS011;71535;53.354;15.030;2023-07-20T11:48:07;2.33;;;0.68;;
82012;SDS011;71535;53.354;15.030;2023-07-20T11:50:39;3.78;;;0.70;;
82012;SDS011;71535;53.354;15.030;2023-07-20T11:53:05;2.85;;;0.63;;
82012;SDS011;71535;53.354;15.030;2023-07-20T11:55:31;2.42;;;0.30;;
82012;SDS011;71535;53.354;15.030;2023-07-20T11:58:01;1.88;;;0.40;;
82012;SDS011;71535;53.354;15.030;2023-07-20T12:00:30;2.53;;;0.40;;
82012;SDS011;71535;53.354;15.030;2023-07-20T12:02:56;1.88;;;0.50;;
82012;SDS011;71535;53.354;15.030;2023-07-20T12:05:22;4.63;;;0.40;;
82012;SDS011;71535;53.354;15.030;2023-07-20T12:07:48;1.63;;;0.30;;
82012;SDS011;71535;53.354;15.030;2023-07-20T12:10:16;2.67;;;0.45;;
82012;SDS011;71535;53.354;15.030;2023-07-20T12:12:51;1.30;;;0.20;;
82012;SDS011;71535;53.354;15.030;2023-07-20T12:15:20;1.27;;;0.25;;
82012;SDS011;71535;53.354;15.030;2023-07-20T12:17:46;1.40;;;0.25;;
82012;SDS011;71535;53.354;15.030;2023-07-20T12:20:23;1.40;;;0.20;;
82012;SDS011;71535;53.354;15.030;2023-07-20T12:28:08;1.98;;;0.25;;
82012;SDS011;71535;53.354;15.030;2023-07-20T12:30:36;2.13;;;0.43;;
82012;SDS011;71535;53.354;15.030;2023-07-20T12:33:03;1.55;;;0.28;;
82012;SDS011;71535;53.354;15.030;2023-07-20T12:35:29;1.73;;;0.22;;
82012;SDS011;71535;53.354;15.030;2023-07-20T12:37:55;1.80;;;0.35;;
82012;SDS011;71535;53.354;15.030;2023-07-20T12:40:21;1.90;;;0.30;;
82012;SDS011;71535;53.354;15.030;2023-07-20T12:42:46;1.85;;;0.40;;
82012;SDS011;71535;53.354;15.030;2023-07-20T12:45:12;1.98;;;0.50;;
82012;SDS011;71535;53.354;15.030;2023-07-20T12:47:38;2.20;;;0.40;;
82012;SDS011;71535;53.354;15.030;2023-07-20T12:50:04;4.18;;;0.77;;
82012;SDS011;71535;53.354;15.030;2023-07-20T12:52:31;2.88;;;0.60;;
82012;SDS011;71535;53.354;15.030;2023-07-20T12:54:57;2.75;;;0.70;;
82012;SDS011;71535;53.354;15.030;2023-07-20T12:57:23;3.08;;;0.35;;
82012;SDS011;71535;53.354;15.030;2023-07-20T12:59:48;1.27;;;0.30;;
82012;SDS011;71535;53.354;15.030;2023-07-20T13:02:14;1.73;;;0.25;;
82012;SDS011;71535;53.354;15.030;2023-07-20T13:04:39;2.47;;;0.40;;
82012;SDS011;71535;53.354;15.030;2023-07-20T13:07:04;5.50;;;1.37;;
82012;SDS011;71535;53.354;15.030;2023-07-20T13:09:30;2.80;;;0.52;;
82012;SDS011;71535;53.354;15.030;2023-07-20T13:11:55;1.20;;;0.20;;
82012;SDS011;71535;53.354;15.030;2023-07-20T13:14:22;1.33;;;0.30;;
82012;SDS011;71535;53.354;15.030;2023-07-20T13:16:47;1.40;;;0.28;;
82012;SDS011;71535;53.354;15.030;2023-07-20T13:19:12;2.90;;;0.30;;
82012;SDS011;71535;53.354;15.030;2023-07-20T13:21:38;1.83;;;0.30;;
82012;SDS011;71535;53.354;15.030;2023-07-20T13:24:03;1.27;;;0.30;;
82012;SDS011;71535;53.354;15.030;2023-07-20T13:26:29;4.00;;;0.40;;
82012;SDS011;71535;53.354;15.030;2023-07-20T13:28:54;1.42;;;0.28;;
82012;SDS011;71535;53.354;15.030;2023-07-20T13:31:20;2.40;;;0.35;;
82012;SDS011;71535;53.354;15.030;2023-07-20T13:33:45;2.25;;;0.50;;
82012;SDS011;71535;53.354;15.030;2023-07-20T13:36:11;2.05;;;0.38;;
82012;SDS011;71535;53.354;15.030;2023-07-20T13:38:36;2.67;;;0.40;;
82012;SDS011;71535;53.354;15.030;2023-07-20T13:41:01;1.92;;;0.50;;
82012;SDS011;71535;53.354;15.030;2023-07-20T13:43:27;1.67;;;0.40;;
82012;SDS011;71535;53.354;15.030;2023-07-20T13:45:52;2.55;;;0.20;;
82012;SDS011;71535;53.354;15.030;2023-07-20T13:48:18;1.13;;;0.30;;
82012;SDS011;71535;53.354;15.030;2023-07-20T13:50:46;4.03;;;0.35;;
82012;SDS011;71535;53.354;15.030;2023-07-20T13:53:11;1.15;;;0.30;;
82012;SDS011;71535;53.354;15.030;2023-07-20T13:55:37;1.30;;;0.22;;
82012;SDS011;71535;53.354;15.030;2023-07-20T13:58:03;1.80;;;0.40;;
82012;SDS011;71535;53.354;15.030;2023-07-20T14:00:28;2.15;;;0.32;;
82012;SDS011;71535;53.354;15.030;2023-07-20T14:02:57;2.97;;;0.77;;
82012;SDS011;71535;53.354;15.030;2023-07-20T14:05:23;2.92;;;1.00;;
82012;SDS011;71535;53.354;15.030;2023-07-20T14:07:49;5.93;;;1.23;;
82012;SDS011;71535;53.354;15.030;2023-07-20T14:10:15;3.30;;;1.27;;
82012;SDS011;71535;53.354;15.030;2023-07-20T14:12:40;3.13;;;0.60;;
82012;SDS011;71535;53.354;15.030;2023-07-20T14:15:05;2.78;;;0.40;;
82012;SDS011;71535;53.354;15.030;2023-07-20T14:17:31;2.63;;;0.60;;
82012;SDS011;71535;53.354;15.030;2023-07-20T14:19:56;3.20;;;0.52;;
82012;SDS011;71535;53.354;15.030;2023-07-20T14:22:22;2.33;;;0.40;;
82012;SDS011;71535;53.354;15.030;2023-07-20T14:24:48;2.67;;;0.30;;
82012;SDS011;71535;53.354;15.030;2023-07-20T14:27:13;3.30;;;1.10;;
82012;SDS011;71535;53.354;15.030;2023-07-20T14:29:39;2.55;;;0.40;;
82012;SDS011;71535;53.354;15.030;2023-07-20T14:32:04;3.13;;;0.40;;
82012;SDS011;71535;53.354;15.030;2023-07-20T14:34:32;3.38;;;0.73;;
82012;SDS011;71535;53.354;15.030;2023-07-20T14:36:59;4.25;;;0.40;;
82012;SDS011;71535;53.354;15.030;2023-07-20T14:39:24;3.40;;;0.50;;
82012;SDS011;71535;53.354;15.030;2023-07-20T14:41:50;3.72;;;0.70;;
82012;SDS011;71535;53.354;15.030;2023-07-20T14:44:16;4.20;;;0.43;;
82012;SDS011;71535;53.354;15.030;2023-07-20T14:46:41;2.78;;;0.70;;
82012;SDS011;71535;53.354;15.030;2023-07-20T14:49:07;3.70;;;0.57;;
82012;SDS011;71535;53.354;15.030;2023-07-20T14:51:32;9.52;;;2.42;;
82012;SDS011;71535;53.354;15.030;2023-07-20T14:54:01;2.67;;;0.77;;
82012;SDS011;71535;53.354;15.030;2023-07-20T14:56:26;2.63;;;0.40;;